Time;durP1;ratioP1;P1;durP2;ratioP2;P2;SDS_P1;SDS_P2;PMS_P1;PMS_P2;Temp;Humidity;BMP_temperature;BMP_pressure;BME280_temperature;BME280_humidity;BME280_pressure;Samples;Min_cycle;Max_cycle;Signal;HPM_P1;HPM_P2
2021/05/27 16:14:46;;;;;;;4.12;2.90;;;;;;;18.11;100.00;98942.78;1784206;80;23677;-67
2021/05/27 16:17:17;;;;;;;5.30;3.02;;;;;;;18.23;100.00;98946.28;1780601;80;21558;-68
2021/05/27 16:19:47;;;;;;;4.70;2.90;;;;;;;18.31;100.00;98952.65;1781704;79;21089;-66
2021/05/27 16:22:21;;;;;;;3.92;3.33;;;;;;;18.36;100.00;98956.47;1782092;79;21525;-65
2021/05/27 16:24:50;;;;;;;6.08;3.50;;;;;;;18.39;100.00;98956.34;1782561;79;21427;-66
2021/05/27 16:27:19;;;;;;;3.35;3.02;;;;;;;18.40;100.00;98952.27;1782607;80;21513;-66
2021/05/27 16:29:55;;;;;;;4.75;3.20;;;;;;;18.43;100.00;98955.28;1782619;80;20951;-65
2021/05/27 16:32:24;;;;;;;6.22;3.40;;;;;;;18.44;100.00;98946.34;1782554;79;21199;-67
2021/05/27 16:35:06;;;;;;;5.85;3.50;;;;;;;18.46;100.00;98940.03;1782372;79;21550;-67
2021/05/27 16:40:20;;;;;;;6.35;4.65;;;;;;;18.45;100.00;98938.77;1782571;79;21467;-66
2021/05/27 16:42:49;;;;;;;5.75;4.70;;;;;;;18.43;100.00;98942.80;1782572;79;20865;-65
2021/05/27 16:45:18;;;;;;;6.28;4.75;;;;;;;18.43;100.00;98944.60;1782486;80;21795;-68
2021/05/27 16:47:48;;;;;;;6.55;4.75;;;;;;;18.42;100.00;98941.06;1782423;79;21684;-68
2021/05/27 16:50:24;;;;;;;8.63;5.55;;;;;;;18.40;100.00;98938.05;1757285;80;20980;-69
2021/05/27 16:52:51;;;;;;;11.57;5.65;;;;;;;18.39;100.00;98937.18;1782249;80;20917;-67
2021/05/27 16:55:19;;;;;;;5.62;4.35;;;;;;;18.37;100.00;98937.71;1782583;79;20929;-66
2021/05/27 16:57:49;;;;;;;5.47;3.67;;;;;;;18.35;100.00;98936.03;1782546;80;21161;-67
2021/05/27 17:00:19;;;;;;;4.97;3.80;;;;;;;18.33;100.00;98933.89;1782545;79;20961;-67
2021/05/27 17:02:47;;;;;;;4.70;3.80;;;;;;;18.29;100.00;98936.29;1782517;79;21542;-68
2021/05/27 17:05:15;;;;;;;5.17;3.67;;;;;;;18.27;100.00;98939.48;1782497;79;21040;-67
2021/05/27 17:07:43;;;;;;;4.55;3.52;;;;;;;18.23;100.00;98936.94;1782330;80;20901;-70
2021/05/27 17:10:12;;;;;;;6.35;3.37;;;;;;;18.21;100.00;98941.47;1770825;80;21096;-67
2021/05/27 17:12:43;;;;;;;4.03;3.15;;;;;;;18.18;100.00;98938.06;1759394;80;20912;-68
2021/05/27 17:15:12;;;;;;;5.53;3.65;;;;;;;18.13;100.00;98934.70;1758329;80;20927;-68
2021/05/27 17:17:40;;;;;;;3.67;3.37;;;;;;;18.08;100.00;98934.89;1758935;80;20920;-67
2021/05/27 17:20:10;;;;;;;4.47;3.10;;;;;;;18.04;100.00;98929.73;1768213;80;20933;-69
2021/05/27 17:22:43;;;;;;;3.62;3.08;;;;;;;17.99;100.00;98932.59;1766844;79;21086;-69
2021/05/27 17:25:12;;;;;;;;;;;;;;;17.98;100.00;98933.98;1776790;80;20872;-69
2021/05/27 17:27:41;;;;;;;4.42;3.40;;;;;;;17.95;100.00;98929.60;1767314;80;20162;-69
2021/05/27 17:30:11;;;;;;;3.70;3.40;;;;;;;17.93;100.00;98935.47;1771112;80;21634;-69
2021/05/27 17:32:39;;;;;;;3.90;3.45;;;;;;;17.90;100.00;98936.92;1780848;79;21616;-68
2021/05/27 17:35:09;;;;;;;3.08;2.87;;;;;;;17.86;100.00;98936.17;1774903;79;21629;-68
2021/05/27 17:37:39;;;;;;;3.55;2.70;;;;;;;17.85;100.00;98939.77;1766806;79;21079;-68
2021/05/27 17:40:08;;;;;;;5.53;3.52;;;;;;;17.84;100.00;98937.16;1774016;79;20993;-68
2021/05/27 17:42:36;;;;;;;6.85;4.35;;;;;;;17.81;100.00;98938.62;1769857;79;20937;-67
2021/05/27 17:45:06;;;;;;;4.85;3.70;;;;;;;17.78;100.00;98940.06;1769600;79;21637;-70
2021/05/27 17:47:38;;;;;;;5.03;3.62;;;;;;;17.77;100.00;98932.53;1772638;80;21096;-68
2021/05/27 17:50:11;;;;;;;8.75;4.67;;;;;;;17.73;100.00;98936.24;1774620;79;21070;-66
2021/05/27 17:52:40;;;;;;;7.85;5.10;;;;;;;17.74;100.00;98939.78;1771341;79;21861;-68
2021/05/27 17:55:09;;;;;;;8.43;5.92;;;;;;;17.68;100.00;98931.55;1774269;80;21035;-71
2021/05/27 17:57:37;;;;;;;4.83;4.10;;;;;;;17.70;100.00;98935.49;1726699;81;20977;-68
2021/05/27 18:00:12;;;;;;;5.85;4.55;;;;;;;17.69;100.00;98939.95;1756249;80;21081;-69
2021/05/27 18:02:40;;;;;;;4.92;3.80;;;;;;;17.70;100.00;98941.70;1764412;80;21090;-66
2021/05/27 18:05:10;;;;;;;5.45;4.30;;;;;;;17.69;100.00;98937.29;1760956;80;21068;-67
2021/05/27 18:07:38;;;;;;;7.92;5.25;;;;;;;17.68;100.00;98929.34;1757254;80;21561;-68
2021/05/27 18:10:08;;;;;;;6.37;4.17;;;;;;;17.64;100.00;98932.56;1765148;80;21019;-68
2021/05/27 18:12:37;;;;;;;4.97;4.33;;;;;;;17.60;100.00;98936.27;1756253;80;21062;-65
2021/05/27 18:15:08;;;;;;;7.72;4.12;;;;;;;17.55;100.00;98936.91;1759554;80;21031;-73
2021/05/27 18:17:36;;;;;;;5.73;4.17;;;;;;;17.50;100.00;98934.42;1753046;81;21082;-73
2021/05/27 18:20:07;;;;;;;7.87;4.30;;;;;;;17.47;100.00;98934.50;1733963;81;21052;-69
2021/05/27 18:22:36;;;;;;;5.28;3.92;;;;;;;17.45;100.00;98935.02;1757193;81;21040;-72
2021/05/27 18:25:06;;;;;;;5.17;3.42;;;;;;;17.42;100.00;98933.80;1759765;81;21136;-74
2021/05/27 18:27:37;;;;;;;4.55;3.33;;;;;;;17.44;100.00;98936.41;1755671;80;21001;-73
2021/05/27 18:30:07;;;;;;;4.00;3.65;;;;;;;17.44;100.00;98939.08;1759812;81;21568;-74
2021/05/27 18:32:35;;;;;;;5.47;3.98;;;;;;;17.43;100.00;98932.88;1757875;81;20996;-67
2021/05/27 18:35:05;;;;;;;7.25;3.42;;;;;;;17.41;100.00;98934.73;1759520;81;21031;-67
2021/05/27 18:37:33;;;;;;;4.22;3.58;;;;;;;17.39;100.00;98932.59;1760361;81;21124;-67
2021/05/27 18:40:02;;;;;;;3.40;3.10;;;;;;;17.41;100.00;98939.20;1759352;81;20940;-68
2021/05/27 18:42:30;;;;;;;3.67;3.37;;;;;;;17.41;100.00;98939.20;1761661;81;21020;-68
2021/05/27 18:44:59;;;;;;;5.70;4.28;;;;;;;17.39;100.00;98940.58;1756189;81;21572;-68
2021/05/27 18:47:28;;;;;;;6.12;3.70;;;;;;;17.36;100.00;98938.03;1734018;81;21016;-67
2021/05/27 18:49:56;;;;;;;4.87;3.62;;;;;;;17.37;100.00;98945.10;1756859;80;21125;-68
2021/05/27 18:52:24;;;;;;;7.17;3.40;;;;;;;17.39;100.00;98949.92;1762114;81;21079;-67
2021/05/27 18:54:52;;;;;;;6.08;4.35;;;;;;;17.42;100.00;98950.27;1745559;80;21000;-67
2021/05/27 18:57:20;;;;;;;4.60;3.60;;;;;;;17.42;100.00;98949.80;1757085;81;21044;-68
2021/05/27 18:59:48;;;;;;;4.47;4.08;;;;;;;17.41;100.00;98947.20;1759003;81;21604;-67
2021/05/27 19:02:16;;;;;;;5.85;3.47;;;;;;;17.43;100.00;98946.21;1733898;81;21757;-67
2021/05/27 19:04:45;;;;;;;3.72;3.42;;;;;;;17.42;100.00;98948.94;1754886;80;21120;-66
2021/05/27 19:07:14;;;;;;;3.72;3.15;;;;;;;17.43;100.00;98948.00;1755965;80;22367;-65
2021/05/27 19:09:43;;;;;;;6.03;3.30;;;;;;;17.44;100.00;98948.41;1755242;80;21513;-67
2021/05/27 19:12:12;;;;;;;3.80;3.50;;;;;;;17.42;100.00;98943.14;1754284;80;20990;-67
2021/05/27 19:14:40;;;;;;;5.05;2.95;;;;;;;17.41;100.00;98951.20;1755962;80;21636;-68
2021/05/27 19:17:10;;;;;;;6.15;3.20;;;;;;;17.39;100.00;98949.92;1770083;80;20992;-67
2021/05/27 19:19:38;;;;;;;5.83;3.30;;;;;;;17.39;100.00;98949.05;1774841;80;20939;-66
2021/05/27 19:22:07;;;;;;;3.85;3.33;;;;;;;17.38;100.00;98944.64;1768667;80;21071;-65
2021/05/27 19:24:37;;;;;;;3.65;3.35;;;;;;;17.38;100.00;98944.64;1769656;80;21004;-67
2021/05/27 19:27:07;;;;;;;4.33;3.05;;;;;;;17.34;100.00;98946.55;1778146;80;21058;-67
2021/05/27 19:29:39;;;;;;;8.60;3.10;;;;;;;17.34;100.00;98952.34;1773770;80;21043;-67
2021/05/27 19:32:08;;;;;;;6.10;3.40;;;;;;;17.31;100.00;98958.20;1777571;80;20977;-67
2021/05/27 19:34:36;;;;;;;7.70;4.10;;;;;;;17.29;100.00;98949.84;1756553;81;21024;-69
2021/05/27 19:37:05;;;;;;;6.90;4.20;;;;;;;17.27;100.00;98959.23;1774875;80;20949;-68
2021/05/27 19:39:35;;;;;;;5.40;4.03;;;;;;;17.25;100.00;98954.88;1774557;80;21710;-68
2021/05/27 19:42:04;;;;;;;4.87;3.65;;;;;;;17.25;100.00;98954.88;1774122;80;21052;-67
2021/05/27 19:44:33;;;;;;;5.03;4.03;;;;;;;17.28;100.00;98948.11;1774197;80;21028;-68
2021/05/27 19:47:03;;;;;;;4.80;4.00;;;;;;;17.28;100.00;98948.11;1774368;80;20957;-69
2021/05/27 19:49:32;;;;;;;4.15;3.75;;;;;;;17.28;100.00;98944.11;1774357;80;21626;-68
2021/05/27 19:52:00;;;;;;;5.65;3.80;;;;;;;17.27;100.00;98945.03;1774500;80;21359;-67
2021/05/27 19:54:28;;;;;;;5.00;3.20;;;;;;;17.25;100.00;98945.09;1774312;80;20910;-67
2021/05/27 19:56:56;;;;;;;5.55;3.80;;;;;;;17.26;100.00;98939.30;1774363;80;20929;-68
2021/05/27 19:59:25;;;;;;;6.08;4.40;;;;;;;17.26;100.00;98937.96;1774426;80;21649;-68
2021/05/27 20:01:53;;;;;;;6.33;4.45;;;;;;;17.23;100.00;98937.61;1774392;80;21071;-67
2021/05/27 20:04:23;;;;;;;7.12;4.08;;;;;;;17.20;100.00;98928.39;1774621;80;21110;-69
2021/05/27 20:06:55;;;;;;;5.62;4.25;;;;;;;17.20;100.00;98928.39;1774434;80;21886;-67
2021/05/27 20:09:25;;;;;;;5.80;4.03;;;;;;;17.23;100.00;98928.75;1774482;80;21028;-68
2021/05/27 20:11:55;;;;;;;5.50;3.53;;;;;;;17.21;100.00;98922.14;1774474;80;21037;-67
2021/05/27 20:14:24;;;;;;;5.60;3.67;;;;;;;17.20;100.00;98931.52;1774269;80;21012;-66
2021/05/27 20:16:52;;;;;;;6.37;3.30;;;;;;;17.15;100.00;98923.70;1776209;80;21087;-66
2021/05/27 20:19:24;;;;;;;5.80;3.35;;;;;;;17.15;100.00;98926.36;1776429;80;20905;-67
2021/05/27 20:22:03;;;;;;;6.70;3.37;;;;;;;17.10;100.00;98936.78;1775250;80;21503;-67
2021/05/27 20:24:31;;;;;;;5.62;4.03;;;;;;;17.10;100.00;98936.78;1776328;80;21927;-67
2021/05/27 20:27:04;;;;;;;5.83;4.92;;;;;;;17.09;100.00;98943.03;1776445;80;21037;-66
2021/05/27 20:29:35;;;;;;;6.00;4.25;;;;;;;17.09;100.00;98943.03;1776479;80;21666;-67
2021/05/27 20:32:04;;;;;;;5.30;4.15;;;;;;;17.09;100.00;98940.38;1776477;80;20858;-67
2021/05/27 20:34:32;;;;;;;7.55;4.20;;;;;;;17.08;100.00;98938.17;1776492;80;21514;-67
2021/05/27 20:37:00;;;;;;;5.28;4.55;;;;;;;17.09;100.00;98935.91;1776310;80;20874;-68
2021/05/27 20:39:28;;;;;;;6.92;4.72;;;;;;;17.09;100.00;98936.38;1776404;80;20952;-68
2021/05/27 20:41:58;;;;;;;9.08;4.72;;;;;;;17.09;100.00;98933.71;1776324;80;21550;-68
2021/05/27 20:44:28;;;;;;;4.20;3.80;;;;;;;17.10;100.00;98934.12;1776275;80;21032;-68
2021/05/27 20:46:57;;;;;;;5.35;3.50;;;;;;;17.10;100.00;98932.33;1776353;80;20972;-68
2021/05/27 20:49:33;;;;;;;6.12;4.03;;;;;;;17.10;100.00;98925.66;1776388;80;21641;-67
2021/05/27 20:51:59;;;;;;;4.87;4.22;;;;;;;17.10;100.00;98926.13;1775638;80;20997;-68
2021/05/27 20:54:29;;;;;;;4.33;3.92;;;;;;;17.08;100.00;98922.18;1776571;80;21129;-68
2021/05/27 20:56:57;;;;;;;4.85;4.17;;;;;;;17.08;100.00;98922.18;1776562;80;21040;-68
2021/05/27 20:59:25;;;;;;;4.00;3.60;;;;;;;17.07;100.00;98928.44;1776561;80;21637;-68
2021/05/27 21:01:54;;;;;;;4.30;3.90;;;;;;;17.07;100.00;98923.56;1752666;80;21531;-68
2021/05/27 21:04:22;;;;;;;5.78;4.17;;;;;;;17.04;100.00;98923.68;1776462;80;21033;-68
2021/05/27 21:06:52;;;;;;;4.15;3.75;;;;;;;17.02;100.00;98919.70;1776423;80;21101;-68
2021/05/27 21:09:25;;;;;;;4.72;3.55;;;;;;;17.01;100.00;98919.30;1775921;80;20968;-67
2021/05/27 21:11:55;;;;;;;5.25;3.90;;;;;;;16.98;100.00;98921.61;1776356;80;20938;-67
2021/05/27 21:14:25;;;;;;;7.08;3.95;;;;;;;16.97;100.00;98922.99;1776536;80;20921;-68
2021/05/27 21:16:55;;;;;;;5.60;4.70;;;;;;;16.97;100.00;98922.53;1776668;80;20925;-67
2021/05/27 21:19:24;;;;;;;6.97;4.58;;;;;;;16.95;100.00;98919.05;1752567;80;21773;-67
2021/05/27 21:21:55;;;;;;;;;;;;;;;16.98;100.00;98924.73;1778186;80;21567;-69
2021/05/27 21:24:24;;;;;;;5.15;4.28;;;;;;;16.97;100.00;98922.53;1776453;80;20199;-68
2021/05/27 21:26:53;;;;;;;4.20;3.77;;;;;;;16.96;100.00;98910.13;1776492;80;21008;-68
2021/05/27 21:29:24;;;;;;;7.92;4.90;;;;;;;16.94;100.00;98909.78;1775882;80;21638;-67
2021/05/27 21:31:53;;;;;;;5.72;4.60;;;;;;;16.92;100.00;98911.17;1776407;80;21018;-68
2021/05/27 21:34:24;;;;;;;6.75;4.58;;;;;;;16.91;100.00;98905.89;1776338;80;20996;-68
2021/05/27 21:36:54;;;;;;;10.80;4.87;;;;;;;16.90;100.00;98907.69;1776409;80;21048;-68
2021/05/27 21:39:24;;;;;;;5.85;4.55;;;;;;;16.89;100.00;98901.08;1776501;80;20981;-68
2021/05/27 21:41:52;;;;;;;5.47;4.70;;;;;;;16.91;100.00;98904.56;1776504;80;21621;-68
2021/05/27 21:44:20;;;;;;;4.72;4.33;;;;;;;16.88;100.00;98904.21;1776369;80;21116;-67
2021/05/27 21:46:48;;;;;;;4.83;4.28;;;;;;;16.86;100.00;98901.19;1776495;80;21391;-67
2021/05/27 21:49:20;;;;;;;7.35;4.80;;;;;;;16.85;100.00;98904.32;1776335;80;21577;-68
2021/05/27 21:51:51;;;;;;;5.58;5.08;;;;;;;16.83;100.00;98895.52;1776566;80;21033;-67
2021/05/27 21:54:22;;;;;;;5.33;4.83;;;;;;;16.85;100.00;98900.33;1776526;80;21004;-67
2021/05/27 21:56:53;;;;;;;5.42;4.92;;;;;;;16.85;100.00;98902.98;1776571;80;21787;-68
2021/05/27 21:59:22;;;;;;;5.25;4.70;;;;;;;16.84;100.00;98905.24;1776506;80;21004;-68
2021/05/27 22:01:51;;;;;;;5.80;4.53;;;;;;;16.84;100.00;98905.24;1776424;80;20976;-67
2021/05/27 22:04:26;;;;;;;6.40;4.60;;;;;;;16.85;100.00;98904.78;1776350;80;21013;-67
2021/05/27 22:06:55;;;;;;;6.85;6.05;;;;;;;16.86;100.00;98904.73;1776459;80;20981;-69
2021/05/27 22:09:25;;;;;;;8.88;7.05;;;;;;;16.79;100.00;98899.20;1776508;80;21089;-68
2021/05/27 22:11:53;;;;;;;13.38;7.12;;;;;;;16.78;100.00;98901.47;1776340;80;21028;-69
2021/05/27 22:14:22;;;;;;;8.55;6.80;;;;;;;16.74;100.00;98893.17;1776323;80;20992;-67
2021/05/27 22:16:58;;;;;;;8.63;6.28;;;;;;;16.72;100.00;98888.83;1774970;80;21550;-67
2021/05/27 22:19:35;;;;;;;7.55;6.75;;;;;;;16.70;100.00;98886.67;1760906;81;21562;-68
2021/05/27 22:22:07;;;;;;;7.62;6.78;;;;;;;16.67;100.00;98877.00;1760677;81;21091;-68
2021/05/27 22:24:38;;;;;;;7.85;7.10;;;;;;;16.67;100.00;98878.33;1760207;81;20992;-67
2021/05/27 22:27:07;;;;;;;8.13;6.40;;;;;;;16.68;100.00;98881.41;1760906;81;20969;-68
2021/05/27 22:29:43;;;;;;;7.53;6.53;;;;;;;16.66;100.00;98881.92;1760902;81;21036;-68
2021/05/27 22:32:15;;;;;;;11.50;7.03;;;;;;;16.64;100.00;98873.95;1760942;81;20977;-69
2021/05/27 22:34:45;;;;;;;9.55;7.15;;;;;;;16.60;100.00;98876.77;1760902;81;21351;-68
2021/05/27 22:37:15;;;;;;;7.85;6.58;;;;;;;16.56;100.00;98879.13;1760909;81;20965;-66
2021/05/27 22:39:47;;;;;;;6.95;6.20;;;;;;;16.55;100.00;98881.36;1760952;81;22298;-68
2021/05/27 22:42:16;;;;;;;9.38;6.42;;;;;;;16.58;100.00;98876.83;1761022;81;21080;-68
2021/05/27 22:44:47;;;;;;;7.50;6.57;;;;;;;16.59;100.00;98869.25;1761009;81;21015;-68
2021/05/27 22:47:18;;;;;;;7.22;6.50;;;;;;;16.61;100.00;98867.41;1760891;81;21070;-67
2021/05/27 22:49:47;;;;;;;8.00;7.20;;;;;;;16.63;100.00;98867.34;1760878;81;21578;-69
2021/05/27 22:52:17;;;;;;;7.15;6.45;;;;;;;16.63;100.00;98863.35;1760829;81;21617;-67
2021/05/27 22:54:46;;;;;;;7.17;6.47;;;;;;;16.62;100.00;98855.83;1760782;81;21078;-68
2021/05/27 22:57:19;;;;;;;7.37;5.95;;;;;;;16.64;100.00;98859.30;1760960;81;21620;-67
2021/05/27 22:59:47;;;;;;;7.40;6.33;;;;;;;16.66;100.00;98865.48;1760990;81;21565;-68
2021/05/27 23:02:19;;;;;;;8.00;6.40;;;;;;;16.65;100.00;98866.41;1761073;81;21027;-69
2021/05/27 23:04:48;;;;;;;7.22;6.35;;;;;;;16.65;100.00;98865.50;1760885;81;21522;-69
2021/05/27 23:07:20;;;;;;;6.05;5.55;;;;;;;16.63;100.00;98867.34;1758662;81;21582;-68
2021/05/27 23:09:51;;;;;;;6.70;5.60;;;;;;;16.63;100.00;98868.22;1759482;81;21008;-68
2021/05/27 23:12:23;;;;;;;6.15;5.58;;;;;;;16.63;100.00;98868.22;1760435;81;21586;-69
2021/05/27 23:14:53;;;;;;;11.20;6.15;;;;;;;16.61;100.00;98863.41;1760929;81;20916;-69
2021/05/27 23:17:27;;;;;;;9.68;5.72;;;;;;;16.60;100.00;98861.66;1744179;81;20940;-68
2021/05/27 23:19:56;;;;;;;5.78;5.15;;;;;;;16.57;100.00;98864.90;1737010;81;21622;-68
2021/05/27 23:22:28;;;;;;;;;;;;;;;16.55;100.00;98867.58;1739471;81;21597;-68
2021/05/27 23:25:00;;;;;;;7.60;5.30;;;;;;;16.51;100.00;98870.41;1736887;81;21097;-67
2021/05/27 23:27:31;;;;;;;9.25;5.47;;;;;;;16.47;100.00;98867.44;1736761;82;21008;-67
2021/05/27 23:29:58;;;;;;;6.30;5.67;;;;;;;16.44;100.00;98859.56;1736640;82;21643;-67
2021/05/27 23:32:33;;;;;;;5.92;5.22;;;;;;;16.40;100.00;98865.91;1736613;82;21080;-68
2021/05/27 23:35:00;;;;;;;7.53;5.20;;;;;;;16.36;100.00;98866.48;1736249;82;21593;-67
2021/05/27 23:37:32;;;;;;;10.58;5.55;;;;;;;16.32;100.00;98869.70;1736707;82;21565;-67
2021/05/27 23:40:01;;;;;;;6.35;5.45;;;;;;;16.31;100.00;98868.42;1736748;82;21004;-67
2021/05/27 23:42:30;;;;;;;8.70;5.72;;;;;;;16.27;100.00;98874.31;1736581;82;21534;-68
2021/05/27 23:45:01;;;;;;;5.85;4.37;;;;;;;16.25;100.00;98877.48;1736471;82;21636;-68
2021/05/27 23:47:31;;;;;;;8.38;4.55;;;;;;;16.24;100.00;98879.73;1736568;82;21609;-67
2021/05/27 23:50:04;;;;;;;5.33;4.72;;;;;;;16.20;100.00;98883.42;1736385;82;21676;-67
2021/05/27 23:52:34;;;;;;;7.95;5.60;;;;;;;16.16;100.00;98876.92;1736481;82;20980;-67
2021/05/27 23:55:06;;;;;;;5.47;4.97;;;;;;;16.10;100.00;98875.80;1736054;82;20988;-67
2021/05/27 23:57:36;;;;;;;5.85;4.55;;;;;;;16.06;100.00;98871.88;1736059;81;21596;-68
